Terminal Aerodrome Forecast
Issued by NWS

Home | Current Version | Previous Version | Graphics & Text | Print | Product List | Glossary On
Versions: 1 2 3 4 5 6 7 8 9 10 11 12 13 14 15 16 17 18 19 20 21 22 23 24 25
877
FTUS43 KTOP 231140
TAFFOE
TAF
KFOE 231140Z 2312/2412 VRB03KT 4SM BR FEW110
      TEMPO 2312/2314 1/2SM FG SCT012
     FM231600 17009KT P6SM FEW150
     FM232200 15007KT P6SM FEW100=

USA.gov is the U.S. government's official web portal to all federal, state and local government web resources and services.